This is the latest recevied weather packets stored in our database for station/object DL4YM-13. If no packets are shown the sender has not sent any weather packets the latest 10 day(s).
| Time | Temp. | Humidity | Pressure | Rain* | Wind** | Luminosity | Snow |
|---|---|---|---|---|---|---|---|
| 1777833926 | 15.56° C | 68% | 995.8 hPa | - | - | - | - |
| 1777833327 | 15.56° C | 68% | 995.8 hPa | - | - | - | - |
| 1777832727 | 15.56° C | 67% | 995.8 hPa | - | - | - | - |
| 1777832126 | 16.11° C | 64% | 995.6 hPa | - | - | - | - |
| 1777831527 | 16.11° C | 64% | 995.6 hPa | - | - | - | - |
| 1777830926 | 16.11° C | 62% | 995.5 hPa | - | - | - | - |
| 1777830326 | 16.67° C | 61% | 995.4 hPa | - | - | - | - |
| 1777829726 | 16.67° C | 60% | 995.2 hPa | - | - | - | - |
| 1777829126 | 16.67° C | 61% | 995.2 hPa | - | - | - | - |
| 1777828526 | 17.22° C | 59% | 995.1 hPa | - | - | - | - |
| 1777827926 | 17.22° C | 59% | 995.1 hPa | - | - | - | - |
| 1777827327 | 17.22° C | 57% | 995.2 hPa | - | - | - | - |
| 1777826727 | 17.22° C | 56% | 995 hPa | - | - | - | - |
| 1777826126 | 17.22° C | 56% | 995 hPa | - | - | - | - |
| 1777825526 | 17.78° C | 54% | 995.1 hPa | - | - | - | - |
| 1777824926 | 17.78° C | 54% | 995 hPa | - | - | - | - |
| 1777824326 | 17.78° C | 52% | 994.9 hPa | - | - | - | - |
| 1777823726 | 18.33° C | 50% | 994.9 hPa | - | - | - | - |
| 1777823126 | 18.33° C | 50% | 994.9 hPa | - | - | - | - |
| 1777822526 | 18.33° C | 51% | 994.9 hPa | - | - | - | - |
| 1777821927 | 18.33° C | 50% | 994.9 hPa | - | - | - | - |
| 1777821326 | 20° C | 42% | 994.6 hPa | - | - | - | - |
| 1777820726 | 20° C | 42% | 994.6 hPa | - | - | - | - |
| 1777820126 | 20.56° C | 42% | 994.6 hPa | - | - | - | - |
| 1777819526 | 20° C | 41% | 994.7 hPa | - | - | - | - |
* Rain since midnight (hover to see other rain measurements)
** Current wind speed in m/s (hover to see current wind gust speed)